sensor_id;sensor_type;location;lat;lon;timestamp;pressure;altitude;pressure_sealevel;temperature;humidity
79540;BME280;68991;52.122;5.406;2023-11-21T00:01:04;101198.81;;;17.33;68.55
79540;BME280;68991;52.122;5.406;2023-11-21T00:03:31;101199.81;;;17.32;68.48
79540;BME280;68991;52.122;5.406;2023-11-21T00:05:58;101207.09;;;17.31;68.39
79540;BME280;68991;52.122;5.406;2023-11-21T00:08:24;101203.72;;;17.28;68.53
79540;BME280;68991;52.122;5.406;2023-11-21T00:10:51;101202.94;;;17.26;68.38
79540;BME280;68991;52.122;5.406;2023-11-21T00:13:17;101209.38;;;17.25;68.32
79540;BME280;68991;52.122;5.406;2023-11-21T00:15:44;101210.44;;;17.22;68.72
79540;BME280;68991;52.122;5.406;2023-11-21T00:18:11;101209.56;;;17.22;68.27
79540;BME280;68991;52.122;5.406;2023-11-21T00:20:37;101211.53;;;17.20;68.51
79540;BME280;68991;52.122;5.406;2023-11-21T00:23:03;101211.63;;;17.18;68.57
79540;BME280;68991;52.122;5.406;2023-11-21T00:25:30;101215.34;;;17.17;68.33
79540;BME280;68991;52.122;5.406;2023-11-21T00:27:58;101217.28;;;17.15;68.43
79540;BME280;68991;52.122;5.406;2023-11-21T00:30:24;101216.41;;;17.15;68.56
79540;BME280;68991;52.122;5.406;2023-11-21T00:32:51;101216.53;;;17.13;68.14
79540;BME280;68991;52.122;5.406;2023-11-21T00:35:17;101221.09;;;17.13;68.49
79540;BME280;68991;52.122;5.406;2023-11-21T00:37:44;101219.34;;;17.12;68.27
79540;BME280;68991;52.122;5.406;2023-11-21T00:40:11;101222.19;;;17.10;68.18
79540;BME280;68991;52.122;5.406;2023-11-21T00:42:38;101225.00;;;17.09;68.32
79540;BME280;68991;52.122;5.406;2023-11-21T00:45:06;101230.44;;;17.09;68.23
79540;BME280;68991;52.122;5.406;2023-11-21T00:47:33;101231.41;;;17.08;68.14
79540;BME280;68991;52.122;5.406;2023-11-21T00:50:00;101226.97;;;17.07;68.23
79540;BME280;68991;52.122;5.406;2023-11-21T00:52:26;101222.53;;;17.06;68.07
79540;BME280;68991;52.122;5.406;2023-11-21T00:54:53;101235.22;;;17.05;68.02
79540;BME280;68991;52.122;5.406;2023-11-21T00:57:19;101243.50;;;17.04;68.17
79540;BME280;68991;52.122;5.406;2023-11-21T00:59:46;101238.16;;;17.02;68.09
79540;BME280;68991;52.122;5.406;2023-11-21T01:02:12;101243.69;;;17.01;68.00
79540;BME280;68991;52.122;5.406;2023-11-21T01:04:39;101252.84;;;17.00;68.23
79540;BME280;68991;52.122;5.406;2023-11-21T01:07:05;101252.94;;;16.98;68.11
79540;BME280;68991;52.122;5.406;2023-11-21T01:09:32;101260.22;;;16.98;68.18
79540;BME280;68991;52.122;5.406;2023-11-21T01:11:58;101259.34;;;16.97;67.94
79540;BME280;68991;52.122;5.406;2023-11-21T01:14:26;101255.00;;;16.95;68.34
79540;BME280;68991;52.122;5.406;2023-11-21T01:16:53;101258.69;;;16.93;68.25
79540;BME280;68991;52.122;5.406;2023-11-21T01:19:20;101258.69;;;16.93;68.24
79540;BME280;68991;52.122;5.406;2023-11-21T01:21:46;101267.81;;;16.92;68.25
79540;BME280;68991;52.122;5.406;2023-11-21T01:24:13;101262.47;;;16.91;68.12
79540;BME280;68991;52.122;5.406;2023-11-21T01:26:39;101256.19;;;16.90;68.14
79540;BME280;68991;52.122;5.406;2023-11-21T01:29:06;101253.59;;;16.89;68.11
79540;BME280;68991;52.122;5.406;2023-11-21T01:31:33;101257.19;;;16.89;67.75
79540;BME280;68991;52.122;5.406;2023-11-21T01:33:59;101249.13;;;16.88;68.17
79540;BME280;68991;52.122;5.406;2023-11-21T01:36:32;101257.38;;;16.86;68.20
79540;BME280;68991;52.122;5.406;2023-11-21T01:38:59;101261.06;;;16.85;68.08
79540;BME280;68991;52.122;5.406;2023-11-21T01:41:27;101264.75;;;16.84;68.00
79540;BME280;68991;52.122;5.406;2023-11-21T01:43:55;101266.59;;;16.84;68.09
79540;BME280;68991;52.122;5.406;2023-11-21T01:46:22;101266.72;;;16.82;68.09
79540;BME280;68991;52.122;5.406;2023-11-21T01:48:49;101267.56;;;16.83;68.04
79540;BME280;68991;52.122;5.406;2023-11-21T01:51:16;101274.00;;;16.82;67.92
79540;BME280;68991;52.122;5.406;2023-11-21T01:53:43;101281.28;;;16.81;68.18
79540;BME280;68991;52.122;5.406;2023-11-21T01:56:11;101279.53;;;16.80;67.98
79540;BME280;68991;52.122;5.406;2023-11-21T01:58:39;101276.06;;;16.78;67.92
79540;BME280;68991;52.122;5.406;2023-11-21T02:01:05;101281.50;;;16.78;68.08
79540;BME280;68991;52.122;5.406;2023-11-21T02:03:32;101296.03;;;16.77;68.00
79540;BME280;68991;52.122;5.406;2023-11-21T02:05:58;101293.41;;;16.76;67.69
79540;BME280;68991;52.122;5.406;2023-11-21T02:08:25;101298.00;;;16.75;67.92
79540;BME280;68991;52.122;5.406;2023-11-21T02:10:53;101306.13;;;16.75;68.02
79540;BME280;68991;52.122;5.406;2023-11-21T02:13:19;101308.84;;;16.75;68.14
79540;BME280;68991;52.122;5.406;2023-11-21T02:15:46;101311.66;;;16.74;67.84
79540;BME280;68991;52.122;5.406;2023-11-21T02:18:13;101306.31;;;16.72;68.03
79540;BME280;68991;52.122;5.406;2023-11-21T02:20:41;101322.59;;;16.72;67.77
79540;BME280;68991;52.122;5.406;2023-11-21T02:23:09;101319.88;;;16.72;67.99
79540;BME280;68991;52.122;5.406;2023-11-21T02:25:35;101324.47;;;16.72;67.82
79540;BME280;68991;52.122;5.406;2023-11-21T02:28:04;101317.31;;;16.71;67.89
79540;BME280;68991;52.122;5.406;2023-11-21T02:30:30;101317.31;;;16.71;67.96
79540;BME280;68991;52.122;5.406;2023-11-21T02:33:01;101320.97;;;16.70;67.84
79540;BME280;68991;52.122;5.406;2023-11-21T02:35:28;101320.97;;;16.70;68.06
79540;BME280;68991;52.122;5.406;2023-11-21T02:37:58;101319.22;;;16.69;68.15
79540;BME280;68991;52.122;5.406;2023-11-21T02:40:24;101321.09;;;16.68;67.58
79540;BME280;68991;52.122;5.406;2023-11-21T02:42:52;101322.06;;;16.67;67.85
79540;BME280;68991;52.122;5.406;2023-11-21T02:45:21;101332.06;;;16.67;67.93
79540;BME280;68991;52.122;5.406;2023-11-21T02:47:48;101321.19;;;16.67;67.87
79540;BME280;68991;52.122;5.406;2023-11-21T02:50:16;101328.47;;;16.66;67.81
79540;BME280;68991;52.122;5.406;2023-11-21T02:52:42;101325.00;;;16.64;67.86
79540;BME280;68991;52.122;5.406;2023-11-21T02:55:09;101327.72;;;16.64;68.06
79540;BME280;68991;52.122;5.406;2023-11-21T02:57:35;101326.84;;;16.64;67.86
79540;BME280;68991;52.122;5.406;2023-11-21T03:00:02;101325.97;;;16.63;67.88
79540;BME280;68991;52.122;5.406;2023-11-21T03:02:29;101327.78;;;16.63;68.00
79540;BME280;68991;52.122;5.406;2023-11-21T03:04:56;101326.91;;;16.62;67.91
79540;BME280;68991;52.122;5.406;2023-11-21T03:07:23;101329.63;;;16.62;67.91
79540;BME280;68991;52.122;5.406;2023-11-21T03:09:49;101328.75;;;16.62;67.82
79540;BME280;68991;52.122;5.406;2023-11-21T03:12:16;101333.34;;;16.61;68.00
79540;BME280;68991;52.122;5.406;2023-11-21T03:14:42;101317.06;;;16.61;67.90
79540;BME280;68991;52.122;5.406;2023-11-21T03:17:09;101313.56;;;16.59;67.90
79540;BME280;68991;52.122;5.406;2023-11-21T03:19:35;101320.75;;;16.60;67.63
79540;BME280;68991;52.122;5.406;2023-11-21T03:22:02;101328.00;;;16.60;67.84
79540;BME280;68991;52.122;5.406;2023-11-21T03:24:30;101329.84;;;16.59;67.52
79540;BME280;68991;52.122;5.406;2023-11-21T03:26:56;101326.25;;;16.59;67.73
79540;BME280;68991;52.122;5.406;2023-11-21T03:29:23;101332.69;;;16.58;67.73
79540;BME280;68991;52.122;5.406;2023-11-21T03:31:49;101326.38;;;16.57;67.94
79540;BME280;68991;52.122;5.406;2023-11-21T03:34:23;101329.09;;;16.57;68.08
79540;BME280;68991;52.122;5.406;2023-11-21T03:36:50;101326.38;;;16.57;67.51
79540;BME280;68991;52.122;5.406;2023-11-21T03:39:16;101329.09;;;16.57;67.67
79540;BME280;68991;52.122;5.406;2023-11-21T03:41:43;101332.78;;;16.56;67.50
79540;BME280;68991;52.122;5.406;2023-11-21T03:44:09;101337.31;;;16.56;67.68
79540;BME280;68991;52.122;5.406;2023-11-21T03:46:36;101338.25;;;16.55;67.81
79540;BME280;68991;52.122;5.406;2023-11-21T03:49:03;101331.91;;;16.56;67.80
79540;BME280;68991;52.122;5.406;2023-11-21T03:51:30;101344.56;;;16.55;67.92
79540;BME280;68991;52.122;5.406;2023-11-21T03:53:56;101347.41;;;16.54;67.87
79540;BME280;68991;52.122;5.406;2023-11-21T03:56:22;101350.97;;;16.54;67.98
79540;BME280;68991;52.122;5.406;2023-11-21T03:58:49;101348.34;;;16.53;67.68
79540;BME280;68991;52.122;5.406;2023-11-21T04:01:21;101358.34;;;16.52;68.01
79540;BME280;68991;52.122;5.406;2023-11-21T04:03:51;101362.81;;;16.53;67.78
79540;BME280;68991;52.122;5.406;2023-11-21T04:06:18;101369.19;;;16.52;67.78
79540;BME280;68991;52.122;5.406;2023-11-21T04:08:45;101366.47;;;16.52;67.74
79540;BME280;68991;52.122;5.406;2023-11-21T04:11:12;101370.16;;;16.51;67.78
79540;BME280;68991;52.122;5.406;2023-11-21T04:13:39;101372.88;;;16.51;67.95
79540;BME280;68991;52.122;5.406;2023-11-21T04:16:07;101378.31;;;16.51;67.68
79540;BME280;68991;52.122;5.406;2023-11-21T04:18:37;101382.88;;;16.51;67.92
79540;BME280;68991;52.122;5.406;2023-11-21T04:21:07;101377.53;;;16.49;67.80
79540;BME280;68991;52.122;5.406;2023-11-21T04:23:34;101373.94;;;16.49;67.91
79540;BME280;68991;52.122;5.406;2023-11-21T04:26:01;101391.13;;;16.49;68.00
79540;BME280;68991;52.122;5.406;2023-11-21T04:28:28;101388.50;;;16.48;67.77
79540;BME280;68991;52.122;5.406;2023-11-21T04:30:55;101393.81;;;16.49;68.49
79540;BME280;68991;52.122;5.406;2023-11-21T04:33:22;101392.06;;;16.48;67.64
79540;BME280;68991;52.122;5.406;2023-11-21T04:35:48;101397.50;;;16.48;67.76
79540;BME280;68991;52.122;5.406;2023-11-21T04:38:15;101402.94;;;16.48;67.80
79540;BME280;68991;52.122;5.406;2023-11-21T04:40:41;101410.19;;;16.48;67.90
79540;BME280;68991;52.122;5.406;2023-11-21T04:43:08;101409.34;;;16.47;67.87
79540;BME280;68991;52.122;5.406;2023-11-21T04:45:34;101411.19;;;16.47;67.42
79540;BME280;68991;52.122;5.406;2023-11-21T04:48:01;101420.22;;;16.47;67.24
79540;BME280;68991;52.122;5.406;2023-11-21T04:50:28;101415.75;;;16.46;67.98
79540;BME280;68991;52.122;5.406;2023-11-21T04:52:54;101425.63;;;16.47;67.66
79540;BME280;68991;52.122;5.406;2023-11-21T04:55:21;101422.06;;;16.47;67.82
79540;BME280;68991;52.122;5.406;2023-11-21T04:57:47;101422.81;;;16.49;67.84
79540;BME280;68991;52.122;5.406;2023-11-21T05:00:14;101411.88;;;16.50;68.13
79540;BME280;68991;52.122;5.406;2023-11-21T05:02:42;101415.44;;;16.51;68.08
79540;BME280;68991;52.122;5.406;2023-11-21T05:05:10;101416.22;;;16.53;68.26
79540;BME280;68991;52.122;5.406;2023-11-21T05:07:39;101427.81;;;16.55;68.09
79540;BME280;68991;52.122;5.406;2023-11-21T05:10:06;101425.97;;;16.55;68.28
79540;BME280;68991;52.122;5.406;2023-11-21T05:12:39;101425.06;;;16.56;68.17
79540;BME280;68991;52.122;5.406;2023-11-21T05:15:07;101429.53;;;16.57;68.38
79540;BME280;68991;52.122;5.406;2023-11-21T05:17:39;101433.13;;;16.58;68.36
79540;BME280;68991;52.122;5.406;2023-11-21T05:20:13;101432.13;;;16.59;68.50
79540;BME280;68991;52.122;5.406;2023-11-21T05:22:40;101438.44;;;16.59;68.31
79540;BME280;68991;52.122;5.406;2023-11-21T05:25:09;101437.47;;;16.60;68.86
79540;BME280;68991;52.122;5.406;2023-11-21T05:27:35;101438.34;;;16.61;68.84
79540;BME280;68991;52.122;5.406;2023-11-21T05:30:03;101440.19;;;16.60;68.74
79540;BME280;68991;52.122;5.406;2023-11-21T05:32:33;101447.53;;;16.58;68.99
79540;BME280;68991;52.122;5.406;2023-11-21T05:35:00;101446.69;;;16.58;68.95
79540;BME280;68991;52.122;5.406;2023-11-21T05:37:27;101445.81;;;16.57;69.02
79540;BME280;68991;52.122;5.406;2023-11-21T05:39:54;101454.91;;;16.56;68.53
79540;BME280;68991;52.122;5.406;2023-11-21T05:42:23;101458.50;;;16.57;68.95
79540;BME280;68991;52.122;5.406;2023-11-21T05:44:49;101458.38;;;16.58;68.60
79540;BME280;68991;52.122;5.406;2023-11-21T05:47:16;101461.09;;;16.58;68.80
79540;BME280;68991;52.122;5.406;2023-11-21T05:49:43;101455.66;;;16.58;68.75
79540;BME280;68991;52.122;5.406;2023-11-21T05:52:11;101465.69;;;16.58;68.94
79540;BME280;68991;52.122;5.406;2023-11-21T05:54:37;101463.94;;;16.57;68.89
79540;BME280;68991;52.122;5.406;2023-11-21T05:57:04;101466.66;;;16.57;68.62
79540;BME280;68991;52.122;5.406;2023-11-21T05:59:30;101483.81;;;16.57;68.78
79540;BME280;68991;52.122;5.406;2023-11-21T06:01:57;101481.09;;;16.57;68.58
79540;BME280;68991;52.122;5.406;2023-11-21T06:04:25;101487.28;;;16.59;68.72
79540;BME280;68991;52.122;5.406;2023-11-21T06:06:52;101482.72;;;16.60;68.62
79540;BME280;68991;52.122;5.406;2023-11-21T06:09:19;101484.56;;;16.59;68.94
79540;BME280;68991;52.122;5.406;2023-11-21T06:11:45;101494.47;;;16.60;69.04
79540;BME280;68991;52.122;5.406;2023-11-21T06:14:12;101499.91;;;16.60;69.07
79540;BME280;68991;52.122;5.406;2023-11-21T06:16:38;101504.44;;;16.60;68.83
79540;BME280;68991;52.122;5.406;2023-11-21T06:19:06;101504.44;;;16.60;68.71
79540;BME280;68991;52.122;5.406;2023-11-21T06:21:33;101497.25;;;16.59;68.65
79540;BME280;68991;52.122;5.406;2023-11-21T06:24:00;101514.53;;;16.58;nan
79540;BME280;68991;52.122;5.406;2023-11-21T06:26:27;101506.41;;;16.58;68.47
79540;BME280;68991;52.122;5.406;2023-11-21T06:28:54;101515.38;;;16.58;68.75
79540;BME280;68991;52.122;5.406;2023-11-21T06:31:21;101510.97;;;16.57;68.64
79540;BME280;68991;52.122;5.406;2023-11-21T06:33:48;101517.25;;;16.58;68.71
79540;BME280;68991;52.122;5.406;2023-11-21T06:36:14;101522.78;;;16.56;68.76
79540;BME280;68991;52.122;5.406;2023-11-21T06:38:41;101517.34;;;16.56;68.78
79540;BME280;68991;52.122;5.406;2023-11-21T06:41:07;101521.97;;;16.54;68.75
79540;BME280;68991;52.122;5.406;2023-11-21T06:43:34;101523.81;;;16.54;68.61
79540;BME280;68991;52.122;5.406;2023-11-21T06:46:01;101523.03;;;16.52;67.79
79540;BME280;68991;52.122;5.406;2023-11-21T06:48:27;101527.56;;;16.51;67.92
79540;BME280;68991;52.122;5.406;2023-11-21T06:50:54;101533.13;;;16.50;68.01
79540;BME280;68991;52.122;5.406;2023-11-21T06:53:20;101533.19;;;16.48;68.27
79540;BME280;68991;52.122;5.406;2023-11-21T06:55:47;101536.91;;;16.47;67.98
79540;BME280;68991;52.122;5.406;2023-11-21T06:58:13;101541.47;;;16.47;67.89
79540;BME280;68991;52.122;5.406;2023-11-21T07:00:41;101542.41;;;16.46;68.08
79540;BME280;68991;52.122;5.406;2023-11-21T07:03:12;101546.09;;;16.44;67.86
79540;BME280;68991;52.122;5.406;2023-11-21T07:05:39;101550.66;;;16.44;68.17
79540;BME280;68991;52.122;5.406;2023-11-21T07:08:05;101555.13;;;16.45;68.24
79540;BME280;68991;52.122;5.406;2023-11-21T07:10:33;101561.50;;;16.44;67.80
79540;BME280;68991;52.122;5.406;2023-11-21T07:13:01;101561.50;;;16.44;67.67
79540;BME280;68991;52.122;5.406;2023-11-21T07:15:28;101570.53;;;16.44;68.00
79540;BME280;68991;52.122;5.406;2023-11-21T07:17:54;101574.09;;;16.45;68.10
79540;BME280;68991;52.122;5.406;2023-11-21T07:20:21;101568.69;;;16.45;68.24
79540;BME280;68991;52.122;5.406;2023-11-21T07:22:47;101578.59;;;16.46;68.22
79540;BME280;68991;52.122;5.406;2023-11-21T07:25:14;101584.97;;;16.45;67.87
79540;BME280;68991;52.122;5.406;2023-11-21T07:27:41;101591.34;;;16.44;68.28
79540;BME280;68991;52.122;5.406;2023-11-21T07:30:08;101595.06;;;16.43;68.20
79540;BME280;68991;52.122;5.406;2023-11-21T07:32:36;101593.22;;;16.43;68.23
79540;BME280;68991;52.122;5.406;2023-11-21T07:35:04;101594.19;;;16.42;68.21
79540;BME280;68991;52.122;5.406;2023-11-21T07:37:30;101585.16;;;16.42;68.30
79540;BME280;68991;52.122;5.406;2023-11-21T07:39:57;101585.16;;;16.42;68.07
79540;BME280;68991;52.122;5.406;2023-11-21T07:42:23;101595.06;;;16.43;68.01
79540;BME280;68991;52.122;5.406;2023-11-21T07:44:52;101601.38;;;16.43;68.25
79540;BME280;68991;52.122;5.406;2023-11-21T07:47:19;101599.50;;;16.44;68.10
79540;BME280;68991;52.122;5.406;2023-11-21T07:49:45;101602.22;;;16.44;68.24
79540;BME280;68991;52.122;5.406;2023-11-21T07:52:13;101610.34;;;16.44;68.17
79540;BME280;68991;52.122;5.406;2023-11-21T07:54:42;101612.22;;;16.43;68.24
79540;BME280;68991;52.122;5.406;2023-11-21T07:57:09;101615.09;;;16.40;68.01
79540;BME280;68991;52.122;5.406;2023-11-21T07:59:40;101617.91;;;16.39;68.18
79540;BME280;68991;52.122;5.406;2023-11-21T08:02:07;101625.94;;;16.40;68.33
79540;BME280;68991;52.122;5.406;2023-11-21T08:04:33;101631.38;;;16.40;68.26
79540;BME280;68991;52.122;5.406;2023-11-21T08:07:01;101639.50;;;16.40;68.40
79540;BME280;68991;52.122;5.406;2023-11-21T08:09:30;101646.69;;;16.41;68.26
79540;BME280;68991;52.122;5.406;2023-11-21T08:11:57;101652.13;;;16.41;68.13
79540;BME280;68991;52.122;5.406;2023-11-21T08:14:23;101648.53;;;16.41;68.11
79540;BME280;68991;52.122;5.406;2023-11-21T08:16:51;101658.44;;;16.42;68.11
79540;BME280;68991;52.122;5.406;2023-11-21T08:19:18;101661.16;;;16.42;67.92
79540;BME280;68991;52.122;5.406;2023-11-21T08:21:45;101666.56;;;16.42;68.40
79540;BME280;68991;52.122;5.406;2023-11-21T08:24:12;101676.56;;;16.41;68.15
79540;BME280;68991;52.122;5.406;2023-11-21T08:26:38;101677.44;;;16.42;68.08
79540;BME280;68991;52.122;5.406;2023-11-21T08:29:05;101682.84;;;16.42;68.08
79540;BME280;68991;52.122;5.406;2023-11-21T08:31:33;101687.41;;;16.41;68.20
79540;BME280;68991;52.122;5.406;2023-11-21T08:34:00;101686.44;;;16.42;68.22
79540;BME280;68991;52.122;5.406;2023-11-21T08:36:29;101694.59;;;16.42;67.89
79540;BME280;68991;52.122;5.406;2023-11-21T08:38:57;101698.25;;;16.41;67.89
79540;BME280;68991;52.122;5.406;2023-11-21T08:41:24;101704.56;;;16.42;68.13
79540;BME280;68991;52.122;5.406;2023-11-21T08:43:51;101715.44;;;16.42;68.01
79540;BME280;68991;52.122;5.406;2023-11-21T08:46:18;101711.84;;;16.41;68.14
79540;BME280;68991;52.122;5.406;2023-11-21T08:48:46;101719.09;;;16.41;68.08
79540;BME280;68991;52.122;5.406;2023-11-21T08:51:12;101722.69;;;16.41;67.91
79540;BME280;68991;52.122;5.406;2023-11-21T08:53:40;101725.41;;;16.41;68.04
79540;BME280;68991;52.122;5.406;2023-11-21T08:56:07;101728.13;;;16.41;68.22
79540;BME280;68991;52.122;5.406;2023-11-21T08:58:35;101729.00;;;16.42;68.28
79540;BME280;68991;52.122;5.406;2023-11-21T09:01:04;101720.84;;;16.42;68.18
79540;BME280;68991;52.122;5.406;2023-11-21T09:03:31;101718.13;;;16.42;67.95
79540;BME280;68991;52.122;5.406;2023-11-21T09:06:00;101731.72;;;16.42;68.01
79540;BME280;68991;52.122;5.406;2023-11-21T09:08:27;101740.63;;;16.44;68.12
79540;BME280;68991;52.122;5.406;2023-11-21T09:10:55;101747.81;;;16.45;68.13
79540;BME280;68991;52.122;5.406;2023-11-21T09:13:22;101753.22;;;16.45;68.01
79540;BME280;68991;52.122;5.406;2023-11-21T09:15:51;101752.28;;;16.46;68.23
79540;BME280;68991;52.122;5.406;2023-11-21T09:18:18;101757.69;;;16.46;68.16
79540;BME280;68991;52.122;5.406;2023-11-21T09:20:44;101772.16;;;16.47;68.08
79540;BME280;68991;52.122;5.406;2023-11-21T09:23:11;101769.44;;;16.47;67.93
79540;BME280;68991;52.122;5.406;2023-11-21T09:25:37;101768.56;;;16.46;68.00
79540;BME280;68991;52.122;5.406;2023-11-21T09:28:05;101769.50;;;16.45;68.10
79540;BME280;68991;52.122;5.406;2023-11-21T09:30:34;101769.50;;;16.45;67.93
79540;BME280;68991;52.122;5.406;2023-11-21T09:33:02;101778.53;;;16.46;67.97
79540;BME280;68991;52.122;5.406;2023-11-21T09:35:29;101783.97;;;16.46;68.06
79540;BME280;68991;52.122;5.406;2023-11-21T09:37:55;101785.81;;;16.45;67.75
79540;BME280;68991;52.122;5.406;2023-11-21T09:40:22;101793.94;;;16.45;68.15
79540;BME280;68991;52.122;5.406;2023-11-21T09:42:54;101803.91;;;16.44;68.02
79540;BME280;68991;52.122;5.406;2023-11-21T09:45:28;101808.47;;;16.44;67.89
79540;BME280;68991;52.122;5.406;2023-11-21T09:47:56;101809.47;;;16.43;67.97
79540;BME280;68991;52.122;5.406;2023-11-21T09:50:24;101811.19;;;16.44;67.74
79540;BME280;68991;52.122;5.406;2023-11-21T09:53:19;101813.91;;;16.44;67.92
79540;BME280;68991;52.122;5.406;2023-11-21T09:55:51;101821.19;;;16.43;68.04
79540;BME280;68991;52.122;5.406;2023-11-21T09:58:19;101828.47;;;16.43;67.93
79540;BME280;68991;52.122;5.406;2023-11-21T10:00:48;101831.06;;;16.44;67.70
79540;BME280;68991;52.122;5.406;2023-11-21T10:03:15;101832.91;;;16.44;68.10
79540;BME280;68991;52.122;5.406;2023-11-21T10:05:43;101828.47;;;16.43;67.62
79540;BME280;68991;52.122;5.406;2023-11-21T10:08:12;101839.31;;;16.43;67.98
79540;BME280;68991;52.122;5.406;2023-11-21T10:10:46;101835.72;;;16.42;67.92
79540;BME280;68991;52.122;5.406;2023-11-21T10:13:14;101836.59;;;16.43;68.12
79540;BME280;68991;52.122;5.406;2023-11-21T10:15:49;101845.69;;;16.42;67.92
79540;BME280;68991;52.122;5.406;2023-11-21T10:18:16;101852.00;;;16.42;67.77
79540;BME280;68991;52.122;5.406;2023-11-21T10:20:42;101855.59;;;16.43;67.81
79540;BME280;68991;52.122;5.406;2023-11-21T10:23:10;101861.03;;;16.43;68.01
79540;BME280;68991;52.122;5.406;2023-11-21T10:25:37;101866.44;;;16.43;67.75
79540;BME280;68991;52.122;5.406;2023-11-21T10:28:04;101866.44;;;16.43;67.60
79540;BME280;68991;52.122;5.406;2023-11-21T10:30:37;101868.19;;;16.44;68.05
79540;BME280;68991;52.122;5.406;2023-11-21T10:33:05;101883.50;;;16.45;67.79
79540;BME280;68991;52.122;5.406;2023-11-21T10:38:07;101879.91;;;16.44;67.80
79540;BME280;68991;52.122;5.406;2023-11-21T10:40:40;101885.34;;;16.44;67.70
79540;BME280;68991;52.122;5.406;2023-11-21T10:43:09;101894.47;;;16.43;67.66
79540;BME280;68991;52.122;5.406;2023-11-21T10:45:37;101906.28;;;16.42;67.71
79540;BME280;68991;52.122;5.406;2023-11-21T10:48:07;101918.97;;;16.42;67.69
79540;BME280;68991;52.122;5.406;2023-11-21T10:50:35;101923.53;;;16.41;67.72
79540;BME280;68991;52.122;5.406;2023-11-21T10:53:04;101918.97;;;16.42;67.91
79540;BME280;68991;52.122;5.406;2023-11-21T10:55:32;101928.94;;;16.41;67.94
79540;BME280;68991;52.122;5.406;2023-11-21T10:58:01;101933.50;;;16.41;67.69
79540;BME280;68991;52.122;5.406;2023-11-21T11:00:29;101939.81;;;16.41;67.81
79540;BME280;68991;52.122;5.406;2023-11-21T11:02:55;101940.69;;;16.42;67.48
79540;BME280;68991;52.122;5.406;2023-11-21T11:05:23;101947.06;;;16.41;67.44
79540;BME280;68991;52.122;5.406;2023-11-21T11:07:51;101942.53;;;16.41;67.71
79540;BME280;68991;52.122;5.406;2023-11-21T11:10:21;101938.91;;;16.41;67.58
79540;BME280;68991;52.122;5.406;2023-11-21T11:12:49;101936.22;;;16.41;67.73
79540;BME280;68991;52.122;5.406;2023-11-21T11:15:19;101939.81;;;16.41;67.97
79540;BME280;68991;52.122;5.406;2023-11-21T11:17:46;101938.91;;;16.41;67.59
79540;BME280;68991;52.122;5.406;2023-11-21T11:20:16;101940.69;;;16.42;67.73
79540;BME280;68991;52.122;5.406;2023-11-21T11:25:47;101943.41;;;16.42;67.63
79540;BME280;68991;52.122;5.406;2023-11-21T11:28:27;101952.50;;;16.41;67.59
79540;BME280;68991;52.122;5.406;2023-11-21T11:34:05;101958.81;;;16.41;67.85
79540;BME280;68991;52.122;5.406;2023-11-21T11:36:39;101956.97;;;16.42;67.57
79540;BME280;68991;52.122;5.406;2023-11-21T11:39:30;101956.97;;;16.42;67.58
79540;BME280;68991;52.122;5.406;2023-11-21T11:41:59;101956.00;;;16.43;67.35
79540;BME280;68991;52.122;5.406;2023-11-21T11:45:19;101962.03;;;16.48;67.34
79540;BME280;68991;52.122;5.406;2023-11-21T11:47:47;101962.84;;;16.50;67.56
79540;BME280;68991;52.122;5.406;2023-11-21T11:50:14;101969.06;;;16.52;67.08
79540;BME280;68991;52.122;5.406;2023-11-21T11:52:47;101971.78;;;16.52;66.88
79540;BME280;68991;52.122;5.406;2023-11-21T11:55:16;101977.31;;;16.51;66.39
79540;BME280;68991;52.122;5.406;2023-11-21T11:57:50;101980.09;;;16.49;66.80
79540;BME280;68991;52.122;5.406;2023-11-21T12:00:33;101982.72;;;16.51;66.63
79540;BME280;68991;52.122;5.406;2023-11-21T12:03:07;101987.28;;;16.50;66.84
79540;BME280;68991;52.122;5.406;2023-11-21T12:05:35;101991.72;;;16.51;66.86
79540;BME280;68991;52.122;5.406;2023-11-21T12:08:06;101997.16;;;16.51;66.93
79540;BME280;68991;52.122;5.406;2023-11-21T12:10:35;101999.88;;;16.51;66.95
79540;BME280;68991;52.122;5.406;2023-11-21T12:13:10;101999.88;;;16.51;66.99
79540;BME280;68991;52.122;5.406;2023-11-21T12:15:39;101990.88;;;16.51;66.87
79540;BME280;68991;52.122;5.406;2023-11-21T12:18:08;102004.44;;;16.51;66.86
79540;BME280;68991;52.122;5.406;2023-11-21T12:20:34;102014.44;;;16.50;66.55
79540;BME280;68991;52.122;5.406;2023-11-21T12:23:13;102005.28;;;16.51;66.94
79540;BME280;68991;52.122;5.406;2023-11-21T12:25:40;102006.19;;;16.52;66.67
79540;BME280;68991;52.122;5.406;2023-11-21T12:28:08;102008.13;;;16.50;67.08
79540;BME280;68991;52.122;5.406;2023-11-21T12:30:35;102009.88;;;16.51;66.91
79540;BME280;68991;52.122;5.406;2023-11-21T12:33:04;102012.50;;;16.52;67.20
79540;BME280;68991;52.122;5.406;2023-11-21T12:35:34;102002.59;;;16.51;67.37
79540;BME280;68991;52.122;5.406;2023-11-21T12:38:02;102008.88;;;16.52;67.12
79540;BME280;68991;52.122;5.406;2023-11-21T12:40:29;102008.00;;;16.51;67.05
79540;BME280;68991;52.122;5.406;2023-11-21T12:42:57;102010.81;;;16.50;67.14
79540;BME280;68991;52.122;5.406;2023-11-21T12:45:26;102021.59;;;16.51;67.18
79540;BME280;68991;52.122;5.406;2023-11-21T12:48:00;102028.00;;;16.50;67.23
79540;BME280;68991;52.122;5.406;2023-11-21T12:50:28;102029.81;;;16.50;67.17
79540;BME280;68991;52.122;5.406;2023-11-21T12:53:03;102030.72;;;16.50;67.23
79540;BME280;68991;52.122;5.406;2023-11-21T12:55:32;102035.25;;;16.50;67.00
79540;BME280;68991;52.122;5.406;2023-11-21T12:58:02;102038.84;;;16.50;67.21
79540;BME280;68991;52.122;5.406;2023-11-21T13:00:42;102038.94;;;16.49;67.22
79540;BME280;68991;52.122;5.406;2023-11-21T13:03:12;102047.94;;;16.49;67.32